createdAt,value
2023-01-17T00:02:17.380Z,1.00
2023-01-17T00:05:03.616Z,0.65
2023-01-17T00:07:50.033Z,2.00
2023-01-17T00:10:19.900Z,2.00
2023-01-17T00:12:56.201Z,3.05
2023-01-17T00:15:24.599Z,1.73
2023-01-17T00:17:53.115Z,2.63
2023-01-17T00:20:47.705Z,1.90
2023-01-17T00:23:42.691Z,1.98
2023-01-17T00:26:14.337Z,1.55
2023-01-17T00:31:11.028Z,0.80
2023-01-17T00:33:38.417Z,2.03
2023-01-17T00:36:07.127Z,2.42
2023-01-17T00:38:36.856Z,2.80
2023-01-17T00:41:10.094Z,1.80
2023-01-17T00:43:56.308Z,2.28
2023-01-17T00:46:42.314Z,1.92
2023-01-17T00:49:28.608Z,4.43
2023-01-17T00:52:14.494Z,1.13
2023-01-17T00:55:00.451Z,4.60
2023-01-17T00:57:46.225Z,3.72
2023-01-17T01:00:32.678Z,3.10
2023-01-17T01:03:18.484Z,4.10
2023-01-17T01:06:04.523Z,3.80
2023-01-17T01:08:50.151Z,4.22
2023-01-17T01:11:39.575Z,4.28
2023-01-17T01:14:28.789Z,1.88
2023-01-17T01:17:14.672Z,3.38
2023-01-17T01:20:00.706Z,1.85
2023-01-17T01:22:46.714Z,4.78
2023-01-17T01:25:32.642Z,4.93
2023-01-17T01:28:36.791Z,2.20
2023-01-17T01:31:23.475Z,2.75
2023-01-17T01:33:53.043Z,2.88
2023-01-17T01:36:21.342Z,1.35
2023-01-17T01:38:50.231Z,4.93
2023-01-17T01:41:17.745Z,2.50
2023-01-17T01:43:48.066Z,4.00
2023-01-17T01:46:27.343Z,3.42
2023-01-17T01:49:07.939Z,3.75
2023-01-17T01:51:40.127Z,1.13
2023-01-17T01:54:16.328Z,2.10
2023-01-17T01:56:45.191Z,3.70
2023-01-17T01:59:15.896Z,4.22
2023-01-17T02:01:43.320Z,4.77
2023-01-17T02:04:11.631Z,3.63
2023-01-17T02:06:43.808Z,6.57
2023-01-17T02:09:12.739Z,4.07
2023-01-17T02:11:40.907Z,2.47
2023-01-17T02:14:14.539Z,2.40
2023-01-17T02:16:48.526Z,2.65
2023-01-17T02:19:34.494Z,4.93
2023-01-17T02:22:38.890Z,2.92
2023-01-17T02:25:19.542Z,2.60
2023-01-17T02:27:55.704Z,1.77
2023-01-17T02:30:32.942Z,2.90
2023-01-17T02:33:35.717Z,2.70
2023-01-17T02:36:10.456Z,5.15
2023-01-17T02:39:05.999Z,4.05
2023-01-17T02:41:41.680Z,3.08
2023-01-17T02:44:10.626Z,2.65
2023-01-17T02:47:36.702Z,2.30
2023-01-17T02:50:13.730Z,4.03
2023-01-17T02:53:12.197Z,2.17
2023-01-17T02:55:58.099Z,2.05
2023-01-17T02:58:40.980Z,4.50
2023-01-17T03:01:20.666Z,4.50
2023-01-17T03:03:54.665Z,3.15
2023-01-17T03:06:27.440Z,3.05
2023-01-17T03:08:54.774Z,3.78
2023-01-17T03:11:22.250Z,2.20
2023-01-17T03:13:54.765Z,2.70
2023-01-17T03:16:23.392Z,3.45
2023-01-17T03:18:50.882Z,1.90
2023-01-17T03:21:18.179Z,3.08
2023-01-17T03:23:45.500Z,2.42
2023-01-17T03:26:13.658Z,3.17
2023-01-17T03:28:41.391Z,3.97
2023-01-17T03:31:08.749Z,3.80
2023-01-17T03:33:36.069Z,1.85
2023-01-17T03:36:03.731Z,2.50
2023-01-17T03:38:31.106Z,4.68
2023-01-17T03:40:58.461Z,3.17
2023-01-17T03:43:25.838Z,1.90
2023-01-17T03:46:05.495Z,4.85
2023-01-17T03:48:33.434Z,4.43
2023-01-17T03:51:00.854Z,1.77
2023-01-17T03:53:28.221Z,1.85
2023-01-17T03:55:55.593Z,1.42
2023-01-17T03:58:23.000Z,4.32
2023-01-17T04:00:50.436Z,2.53
2023-01-17T04:03:17.820Z,1.92
2023-01-17T04:05:45.355Z,2.40
2023-01-17T04:08:12.713Z,0.88
2023-01-17T04:10:40.071Z,2.22
2023-01-17T04:13:07.417Z,4.22
2023-01-17T04:15:34.924Z,4.18
2023-01-17T04:18:04.470Z,3.10
2023-01-17T04:20:34.802Z,2.92
2023-01-17T04:23:02.716Z,2.90
2023-01-17T04:25:31.029Z,7.68
2023-01-17T04:28:00.292Z,3.08
2023-01-17T04:30:28.894Z,3.30
2023-01-17T04:32:56.818Z,2.17
2023-01-17T04:35:24.318Z,2.88
2023-01-17T04:37:52.854Z,2.95
2023-01-17T04:40:20.482Z,2.47
2023-01-17T04:42:48.412Z,1.80
2023-01-17T04:45:16.132Z,3.13
2023-01-17T04:47:43.651Z,3.28
2023-01-17T04:50:11.751Z,1.65
2023-01-17T04:52:39.180Z,2.03
2023-01-17T04:55:07.115Z,2.92
2023-01-17T04:57:34.566Z,2.38
2023-01-17T05:00:01.981Z,4.05
2023-01-17T05:02:29.518Z,2.13
2023-01-17T05:04:56.832Z,2.50
2023-01-17T05:07:24.360Z,2.08
2023-01-17T05:09:51.641Z,4.38
2023-01-17T05:12:18.989Z,3.53
2023-01-17T05:14:46.326Z,2.05
2023-01-17T05:17:13.759Z,2.60
2023-01-17T05:19:41.162Z,3.38
2023-01-17T05:22:15.368Z,3.15
2023-01-17T05:24:44.920Z,3.25
2023-01-17T05:27:13.513Z,2.75
2023-01-17T05:29:41.296Z,2.17
2023-01-17T05:32:09.003Z,2.60
2023-01-17T05:34:36.347Z,4.47
2023-01-17T05:37:03.734Z,2.70
2023-01-17T05:39:31.224Z,3.38
2023-01-17T05:41:59.588Z,3.88
2023-01-17T05:44:27.769Z,4.72
2023-01-17T05:46:56.390Z,4.50
2023-01-17T05:49:24.150Z,1.48
2023-01-17T05:51:54.735Z,6.78
2023-01-17T05:54:22.291Z,3.17
2023-01-17T05:56:49.656Z,3.35
2023-01-17T05:59:28.597Z,3.38
2023-01-17T06:02:03.514Z,2.00
2023-01-17T06:04:31.014Z,3.30
2023-01-17T06:06:58.446Z,4.47
2023-01-17T06:09:25.743Z,4.32
2023-01-17T06:11:53.056Z,2.80
2023-01-17T06:14:20.748Z,3.10
2023-01-17T06:16:48.067Z,2.65
2023-01-17T06:19:15.742Z,1.52
2023-01-17T06:21:43.080Z,2.70
2023-01-17T06:24:10.459Z,4.72
2023-01-17T06:26:37.801Z,2.20
2023-01-17T06:29:05.219Z,1.48
2023-01-17T06:31:32.622Z,5.82
2023-01-17T06:34:03.326Z,2.45
2023-01-17T06:36:32.764Z,4.50
2023-01-17T06:39:00.153Z,2.15
2023-01-17T06:41:27.714Z,2.30
2023-01-17T06:43:56.132Z,2.05
2023-01-17T06:46:23.620Z,2.92
2023-01-17T06:48:51.005Z,4.00
2023-01-17T06:51:18.516Z,3.53
2023-01-17T06:53:48.332Z,3.05
2023-01-17T06:56:15.828Z,4.40
2023-01-17T06:58:43.205Z,2.47
2023-01-17T07:01:13.050Z,2.42
2023-01-17T07:03:40.611Z,2.00
2023-01-17T07:06:09.639Z,4.47
2023-01-17T07:08:37.521Z,2.85
2023-01-17T07:11:07.930Z,2.05
2023-01-17T07:13:36.660Z,1.83
2023-01-17T07:16:05.490Z,1.27
2023-01-17T07:18:34.132Z,2.03
2023-01-17T07:21:01.642Z,3.80
2023-01-17T07:23:29.052Z,2.40
2023-01-17T07:25:59.051Z,2.28
2023-01-17T07:28:28.262Z,1.25
2023-01-17T07:30:55.569Z,1.73
2023-01-17T07:33:23.168Z,0.98
2023-01-17T07:35:50.650Z,1.42
2023-01-17T07:38:19.739Z,1.27
2023-01-17T07:40:47.192Z,1.25
2023-01-17T07:43:14.771Z,0.98
2023-01-17T07:45:43.585Z,3.10
2023-01-17T07:48:11.900Z,1.70
2023-01-17T07:50:39.374Z,0.77
2023-01-17T07:53:06.737Z,1.60
2023-01-17T07:55:34.057Z,1.13
2023-01-17T07:58:03.075Z,1.95
2023-01-17T08:00:30.808Z,1.20
2023-01-17T08:02:59.666Z,0.88
2023-01-17T08:05:28.203Z,1.90
2023-01-17T08:07:55.486Z,1.40
2023-01-17T08:10:23.050Z,1.60
2023-01-17T08:12:50.633Z,1.02
2023-01-17T08:15:18.627Z,0.50
2023-01-17T08:17:53.156Z,1.25
2023-01-17T08:20:21.461Z,1.25
2023-01-17T08:22:48.713Z,2.15
2023-01-17T08:25:16.024Z,1.55
2023-01-17T08:27:43.350Z,0.68
2023-01-17T08:30:11.220Z,0.85
2023-01-17T08:32:41.171Z,0.40
2023-01-17T08:35:09.172Z,0.32
2023-01-17T08:37:37.850Z,1.42
2023-01-17T08:40:06.021Z,1.23
2023-01-17T08:42:39.332Z,0.50
2023-01-17T08:45:43.568Z,0.30
2023-01-17T08:48:11.213Z,0.70
2023-01-17T08:50:38.682Z,0.63
2023-01-17T08:53:06.344Z,0.50
2023-01-17T08:55:37.791Z,0.77
2023-01-17T08:58:05.123Z,0.85
2023-01-17T09:00:32.654Z,0.98
2023-01-17T09:03:01.355Z,2.95
2023-01-17T09:05:28.819Z,0.93
2023-01-17T09:07:56.775Z,2.75
2023-01-17T09:10:24.097Z,1.17
2023-01-17T09:13:09.924Z,0.73
2023-01-17T09:15:37.358Z,0.70
2023-01-17T09:18:04.760Z,1.00
2023-01-17T09:20:32.139Z,1.20
2023-01-17T09:23:03.957Z,0.95
2023-01-17T09:25:31.287Z,0.82
2023-01-17T09:27:58.747Z,0.63
2023-01-17T09:30:26.168Z,1.70
2023-01-17T09:32:56.549Z,0.30
2023-01-17T09:35:23.976Z,0.52
2023-01-17T09:37:51.770Z,0.85
2023-01-17T09:40:23.013Z,1.65
2023-01-17T09:42:58.299Z,0.80
2023-01-17T09:45:34.380Z,0.40
2023-01-17T09:48:09.258Z,0.77
2023-01-17T09:50:44.424Z,1.27
2023-01-17T09:53:20.895Z,1.20
2023-01-17T09:55:56.272Z,1.10
2023-01-17T09:58:29.584Z,1.08
2023-01-17T10:01:27.851Z,0.32
2023-01-17T10:04:17.919Z,1.85
2023-01-17T10:06:57.331Z,0.30
2023-01-17T10:09:46.370Z,0.77
2023-01-17T10:13:07.763Z,1.85
2023-01-17T10:16:07.685Z,0.30
2023-01-17T10:19:05.999Z,0.70
2023-01-17T10:21:45.441Z,1.17
2023-01-17T10:24:42.429Z,0.30
2023-01-17T10:27:25.062Z,0.75
2023-01-17T10:29:52.467Z,2.30
2023-01-17T10:32:23.751Z,1.30
2023-01-17T10:34:52.933Z,0.60
2023-01-17T10:37:31.289Z,2.28
2023-01-17T10:40:14.010Z,0.40
2023-01-17T10:43:07.257Z,0.68
2023-01-17T10:45:50.961Z,0.30
2023-01-17T10:48:43.703Z,0.30
2023-01-17T10:51:49.943Z,1.30
2023-01-17T10:54:30.257Z,0.73
2023-01-17T10:56:59.016Z,0.52
2023-01-17T10:59:34.378Z,2.05
2023-01-17T11:02:07.459Z,0.40
2023-01-17T11:04:40.890Z,0.57
2023-01-17T11:07:17.023Z,0.30
2023-01-17T11:09:52.278Z,0.30
2023-01-17T11:12:43.963Z,0.40
2023-01-17T11:15:11.258Z,0.30
2023-01-17T11:17:45.336Z,0.40
2023-01-17T11:20:12.631Z,0.40
2023-01-17T11:22:40.084Z,0.40
2023-01-17T11:25:19.780Z,1.25
2023-01-17T11:27:58.600Z,0.40
2023-01-17T11:30:29.484Z,0.30
2023-01-17T11:32:59.402Z,0.30
2023-01-17T11:35:41.427Z,1.02
2023-01-17T11:38:18.630Z,0.80
2023-01-17T11:40:47.848Z,0.30
2023-01-17T11:43:20.913Z,0.68
2023-01-17T11:46:14.612Z,0.38
2023-01-17T11:48:46.591Z,0.30
2023-01-17T11:51:43.301Z,1.10
2023-01-17T11:54:22.344Z,0.68
2023-01-17T11:56:51.854Z,0.30
2023-01-17T11:59:24.264Z,0.50
2023-01-17T12:02:02.467Z,0.30
2023-01-17T12:04:40.987Z,0.63
2023-01-17T12:07:23.311Z,0.65
2023-01-17T12:10:07.882Z,0.30
2023-01-17T12:13:11.365Z,0.35
2023-01-17T12:15:55.345Z,0.40
2023-01-17T12:18:33.917Z,0.30
2023-01-17T12:21:17.475Z,0.30
2023-01-17T12:24:03.537Z,1.35
2023-01-17T12:26:38.052Z,0.98
2023-01-17T12:29:14.327Z,0.63
2023-01-17T12:32:03.002Z,0.30
2023-01-17T12:34:38.824Z,0.30
2023-01-17T12:37:18.193Z,0.75
2023-01-17T12:40:03.486Z,0.95
2023-01-17T12:42:54.250Z,0.30
2023-01-17T12:45:28.505Z,0.30
2023-01-17T12:48:04.667Z,0.30
2023-01-17T12:50:43.659Z,0.30
2023-01-17T12:53:49.558Z,0.63
2023-01-17T12:56:19.653Z,0.47
2023-01-17T12:58:52.289Z,0.40
2023-01-17T13:01:40.043Z,0.50
2023-01-17T13:04:19.983Z,1.25
2023-01-17T13:07:05.234Z,0.30
2023-01-17T13:09:47.182Z,0.30
2023-01-17T13:12:18.170Z,0.57
2023-01-17T13:14:46.851Z,0.77
2023-01-17T13:18:09.519Z,0.60
2023-01-17T13:21:04.840Z,0.85
2023-01-17T13:23:50.104Z,0.75
2023-01-17T13:26:44.270Z,0.32
2023-01-17T13:29:14.442Z,1.10
2023-01-17T13:31:48.266Z,1.05
2023-01-17T13:34:28.038Z,1.42
2023-01-17T13:37:17.001Z,0.40
2023-01-17T13:40:02.533Z,1.33
2023-01-17T13:42:54.101Z,0.50
2023-01-17T13:45:25.778Z,0.40
2023-01-17T13:47:54.016Z,0.50
2023-01-17T13:50:36.594Z,0.80
2023-01-17T13:53:28.597Z,0.32
2023-01-17T13:56:20.521Z,0.32
2023-01-17T14:01:22.104Z,0.40
2023-01-17T14:03:49.921Z,0.30
2023-01-17T14:06:35.769Z,0.85
2023-01-17T14:09:18.615Z,0.70
2023-01-17T14:11:52.260Z,0.40
2023-01-17T14:14:41.800Z,1.15
2023-01-17T14:17:28.092Z,1.05
2023-01-17T14:20:19.528Z,0.38
2023-01-17T14:22:52.447Z,1.05
2023-01-17T14:25:23.040Z,0.60
2023-01-17T14:27:53.456Z,0.50
2023-01-17T14:30:28.429Z,1.20
2023-01-17T14:32:58.718Z,1.10
2023-01-17T14:35:35.246Z,0.50
2023-01-17T14:38:05.647Z,0.30
2023-01-17T14:40:35.682Z,0.30
2023-01-17T14:43:06.173Z,0.30
2023-01-17T14:45:35.836Z,0.40
2023-01-17T14:48:07.085Z,0.93
2023-01-17T14:50:39.112Z,0.30
2023-01-17T14:53:12.778Z,0.45
2023-01-17T14:55:49.115Z,0.40
2023-01-17T14:58:34.316Z,0.65
2023-01-17T15:01:05.405Z,0.88
2023-01-17T15:03:44.630Z,1.02
2023-01-17T15:06:24.333Z,0.35
2023-01-17T15:08:54.153Z,0.50
2023-01-17T15:11:35.420Z,0.30
2023-01-17T15:14:06.461Z,0.90
2023-01-17T15:16:36.608Z,0.50
2023-01-17T15:19:11.701Z,1.25
2023-01-17T15:21:42.599Z,0.60
2023-01-17T15:24:34.417Z,0.55
2023-01-17T15:27:02.178Z,0.43
2023-01-17T15:29:34.701Z,0.30
2023-01-17T15:32:05.422Z,1.35
2023-01-17T15:34:36.009Z,0.50
2023-01-17T15:37:08.049Z,1.15
2023-01-17T15:39:38.895Z,0.40
2023-01-17T15:42:23.147Z,0.30
2023-01-17T15:44:56.838Z,0.50
2023-01-17T15:47:38.801Z,0.85
2023-01-17T15:50:23.595Z,1.10
2023-01-17T15:53:02.847Z,0.95
2023-01-17T15:55:34.238Z,0.50
2023-01-17T15:58:02.832Z,0.85
2023-01-17T16:00:48.488Z,0.60
2023-01-17T16:03:26.633Z,0.95
2023-01-17T16:05:57.633Z,0.30
2023-01-17T16:08:34.264Z,0.50
2023-01-17T16:11:03.384Z,0.30
2023-01-17T16:13:33.074Z,0.40
2023-01-17T16:16:14.126Z,1.00
2023-01-17T16:18:42.168Z,0.63
2023-01-17T16:21:22.584Z,0.82
2023-01-17T16:23:50.221Z,0.35
2023-01-17T16:26:18.114Z,0.30
2023-01-17T16:28:45.899Z,0.52
2023-01-17T16:31:13.307Z,0.50
2023-01-17T16:33:42.135Z,1.02
2023-01-17T16:36:15.315Z,0.40
2023-01-17T16:38:44.473Z,0.35
2023-01-17T16:41:11.873Z,0.50
2023-01-17T16:43:39.317Z,0.30
2023-01-17T16:46:07.154Z,0.40
2023-01-17T16:48:36.758Z,0.57
2023-01-17T16:51:07.698Z,0.65
2023-01-17T16:53:35.783Z,0.55
2023-01-17T16:56:10.179Z,1.23
2023-01-17T16:58:37.750Z,0.50
2023-01-17T17:01:15.927Z,0.60
2023-01-17T17:03:44.717Z,0.65
2023-01-17T17:06:12.722Z,0.50
2023-01-17T17:08:40.086Z,0.30
2023-01-17T17:11:16.537Z,0.95
2023-01-17T17:13:45.828Z,0.98
2023-01-17T17:16:16.180Z,2.25
2023-01-17T17:18:45.705Z,0.40
2023-01-17T17:21:14.110Z,0.60
2023-01-17T17:23:41.582Z,0.95
2023-01-17T17:26:08.895Z,0.30
2023-01-17T17:28:36.206Z,0.52
2023-01-17T17:31:10.471Z,0.50
2023-01-17T17:33:38.698Z,3.55
2023-01-17T17:36:08.006Z,2.15
2023-01-17T17:38:35.810Z,0.82
2023-01-17T17:41:09.314Z,0.75
2023-01-17T17:43:40.355Z,0.75
2023-01-17T17:46:09.172Z,0.70
2023-01-17T17:48:37.079Z,0.40
2023-01-17T17:51:05.612Z,0.50
2023-01-17T17:53:33.128Z,1.60
2023-01-17T17:56:05.491Z,0.60
2023-01-17T17:58:36.084Z,0.57
2023-01-17T18:01:06.133Z,0.85
2023-01-17T18:03:33.855Z,1.55
2023-01-17T18:06:02.977Z,1.45
2023-01-17T18:08:33.955Z,0.40
2023-01-17T18:11:03.330Z,1.58
2023-01-17T18:13:31.698Z,1.60
2023-01-17T18:16:08.264Z,0.85
2023-01-17T18:18:37.649Z,1.17
2023-01-17T18:21:26.063Z,0.50
2023-01-17T18:24:04.106Z,1.13
2023-01-17T18:26:32.816Z,0.85
2023-01-17T18:29:01.472Z,0.60
2023-01-17T18:31:30.295Z,0.40
2023-01-17T18:33:59.993Z,1.17
2023-01-17T18:36:30.663Z,1.38
2023-01-17T18:38:58.064Z,0.87
2023-01-17T18:41:27.927Z,0.95
2023-01-17T18:43:56.159Z,1.25
2023-01-17T18:46:25.863Z,1.33
2023-01-17T18:48:56.325Z,1.92
2023-01-17T18:51:24.512Z,0.80
2023-01-17T18:53:53.031Z,0.50
2023-01-17T18:56:22.739Z,1.05
2023-01-17T18:58:50.599Z,0.50
2023-01-17T19:01:26.140Z,0.82
2023-01-17T19:03:57.745Z,1.35
2023-01-17T19:09:02.643Z,0.95
2023-01-17T19:11:30.542Z,0.32
2023-01-17T19:13:57.950Z,0.73
2023-01-17T19:16:28.531Z,0.65
2023-01-17T19:18:58.053Z,1.10
2023-01-17T19:21:27.575Z,0.60
2023-01-17T19:23:56.277Z,2.25
2023-01-17T19:26:26.516Z,1.70
2023-01-17T19:28:56.356Z,1.02
2023-01-17T19:31:26.882Z,1.52
2023-01-17T19:33:59.053Z,1.50
2023-01-17T19:36:29.274Z,2.05
2023-01-17T19:39:04.878Z,0.93
2023-01-17T19:41:35.242Z,1.80
2023-01-17T19:44:05.887Z,1.35
2023-01-17T19:46:34.416Z,3.03
2023-01-17T19:49:02.775Z,0.98
2023-01-17T19:51:30.235Z,1.13
2023-01-17T19:54:01.576Z,1.40
2023-01-17T19:56:29.984Z,0.47
2023-01-17T19:59:00.977Z,1.08
2023-01-17T20:01:31.764Z,0.90
2023-01-17T20:04:00.735Z,2.47
2023-01-17T20:06:30.884Z,1.70
2023-01-17T20:08:59.044Z,0.93
2023-01-17T20:11:28.207Z,1.08
2023-01-17T20:13:57.713Z,1.77
2023-01-17T20:16:27.746Z,1.30
2023-01-17T20:18:55.370Z,0.55
2023-01-17T20:21:26.275Z,1.00
2023-01-17T20:23:54.972Z,1.58
2023-01-17T20:26:25.921Z,1.30
2023-01-17T20:28:53.505Z,0.50
2023-01-17T20:31:22.986Z,1.48
2023-01-17T20:33:53.820Z,1.73
2023-01-17T20:36:26.783Z,2.33
2023-01-17T20:38:55.530Z,1.13
2023-01-17T20:41:25.450Z,1.00
2023-01-17T20:43:55.433Z,1.15
2023-01-17T20:46:25.375Z,0.73
2023-01-17T20:48:54.875Z,0.57
2023-01-17T20:51:24.071Z,1.52
2023-01-17T20:53:54.059Z,1.58
2023-01-17T20:56:21.919Z,1.45
2023-01-17T20:58:51.755Z,2.50
2023-01-17T21:01:19.680Z,2.60
2023-01-17T21:03:51.084Z,0.65
2023-01-17T21:06:19.732Z,0.77
2023-01-17T21:08:48.403Z,1.45
2023-01-17T21:11:19.785Z,0.40
2023-01-17T21:13:48.827Z,1.13
2023-01-17T21:16:17.874Z,2.25
2023-01-17T21:18:49.188Z,2.35
2023-01-17T21:21:20.068Z,1.05
2023-01-17T21:23:48.355Z,1.40
2023-01-17T21:26:17.115Z,2.28
2023-01-17T21:28:46.892Z,0.40
2023-01-17T21:31:23.196Z,0.77
2023-01-17T21:34:02.545Z,1.27
2023-01-17T21:36:33.136Z,0.98
2023-01-17T21:39:04.767Z,1.10
2023-01-17T21:41:35.574Z,1.02
2023-01-17T21:44:08.007Z,0.30
2023-01-17T21:46:40.359Z,0.95
2023-01-17T21:49:12.881Z,0.77
2023-01-17T21:52:05.069Z,0.88
2023-01-17T21:54:50.890Z,0.65
2023-01-17T21:57:41.021Z,1.10
2023-01-17T22:00:14.448Z,0.82
2023-01-17T22:02:47.232Z,1.85
2023-01-17T22:05:16.472Z,1.25
2023-01-17T22:08:10.348Z,1.40
2023-01-17T22:10:44.563Z,1.42
2023-01-17T22:13:17.155Z,1.63
2023-01-17T22:15:45.451Z,1.60
2023-01-17T22:18:13.817Z,0.93
2023-01-17T22:20:42.422Z,0.40
2023-01-17T22:23:10.310Z,1.15
2023-01-17T22:25:37.750Z,0.55
2023-01-17T22:28:05.158Z,1.33
2023-01-17T22:30:32.509Z,0.60
2023-01-17T22:33:03.159Z,1.38
2023-01-17T22:35:30.655Z,2.28
2023-01-17T22:37:58.135Z,1.13
2023-01-17T22:40:26.223Z,0.57
2023-01-17T22:42:53.985Z,0.90
2023-01-17T22:45:21.391Z,0.68
2023-01-17T22:47:48.770Z,2.10
2023-01-17T22:50:16.309Z,0.80
2023-01-17T22:52:43.598Z,1.15
2023-01-17T22:55:12.180Z,0.90
2023-01-17T22:57:39.753Z,1.13
2023-01-17T23:00:14.633Z,0.60
2023-01-17T23:02:42.732Z,2.15
2023-01-17T23:05:10.696Z,0.50
2023-01-17T23:07:43.818Z,1.17
2023-01-17T23:10:13.538Z,1.65
2023-01-17T23:12:41.014Z,1.55
2023-01-17T23:15:27.157Z,2.13
2023-01-17T23:18:13.130Z,1.10
2023-01-17T23:20:40.635Z,1.10
2023-01-17T23:23:08.023Z,0.93
2023-01-17T23:25:35.362Z,0.65
2023-01-17T23:28:12.222Z,0.93
2023-01-17T23:30:43.054Z,0.47
2023-01-17T23:33:15.224Z,2.20
2023-01-17T23:35:45.172Z,1.30
2023-01-17T23:38:26.282Z,1.10
2023-01-17T23:41:12.598Z,2.13
2023-01-17T23:43:40.008Z,1.33
2023-01-17T23:46:12.140Z,0.60
2023-01-17T23:48:39.798Z,1.55
2023-01-17T23:51:08.221Z,1.17
2023-01-17T23:53:39.918Z,2.65
2023-01-17T23:56:14.090Z,1.40
2023-01-17T23:58:41.633Z,1.77
